createdAt,value
2023-04-15T00:01:00.692Z,10.10
2023-04-15T00:06:00.675Z,10.30
2023-04-15T00:11:02.966Z,10.20
2023-04-15T00:16:01.734Z,10.20
2023-04-15T00:21:01.359Z,10.20
2023-04-15T00:25:59.414Z,10.20
2023-04-15T00:31:16.908Z,10.20
2023-04-15T00:36:17.016Z,10.20
2023-04-15T00:41:15.398Z,10.20
2023-04-15T00:46:16.161Z,10.20
2023-04-15T00:51:15.924Z,10.20
2023-04-15T00:56:14.952Z,10.30
2023-04-15T01:01:13.199Z,10.30
2023-04-15T01:06:12.028Z,10.20
2023-04-15T01:11:13.735Z,10.30
2023-04-15T01:16:13.477Z,10.30
2023-04-15T01:21:11.866Z,10.20
2023-04-15T01:26:12.189Z,10.20
2023-04-15T01:31:11.835Z,10.20
2023-04-15T01:36:11.250Z,10.20
2023-04-15T01:41:11.223Z,10.30
2023-04-15T01:46:09.468Z,10.30
2023-04-15T01:51:08.210Z,10.30
2023-04-15T01:56:07.339Z,10.30
2023-04-15T02:01:07.211Z,10.30
2023-04-15T02:06:06.109Z,10.30
2023-04-15T02:11:04.505Z,10.30
2023-04-15T02:16:04.318Z,10.30
2023-04-15T02:21:06.154Z,10.40
2023-04-15T02:26:04.353Z,10.40
2023-04-15T02:31:06.993Z,10.50
2023-04-15T02:36:07.987Z,10.50
2023-04-15T02:41:06.258Z,10.40
2023-04-15T02:46:07.015Z,10.50
2023-04-15T02:51:17.531Z,10.50
2023-04-15T02:56:17.428Z,10.50
2023-04-15T03:01:15.819Z,10.50
2023-04-15T03:06:14.186Z,10.40
2023-04-15T03:11:14.270Z,10.50
2023-04-15T03:16:12.628Z,10.60
2023-04-15T03:21:11.077Z,10.50
2023-04-15T03:26:10.373Z,10.50
2023-04-15T03:31:10.227Z,10.60
2023-04-15T03:36:08.947Z,10.60
2023-04-15T03:41:07.626Z,10.60
2023-04-15T03:46:06.467Z,10.60
2023-04-15T03:51:06.109Z,10.60
2023-04-15T03:56:04.325Z,10.60
2023-04-15T04:01:02.530Z,10.70
2023-04-15T04:06:01.304Z,10.70
2023-04-15T04:11:01.036Z,10.70
2023-04-15T04:15:59.343Z,10.70
2023-04-15T04:20:57.562Z,10.70
2023-04-15T04:25:55.755Z,10.90
2023-04-15T04:30:55.349Z,10.90
2023-04-15T04:35:53.531Z,10.80
2023-04-15T04:40:51.923Z,10.80
2023-04-15T04:45:50.191Z,10.90
2023-04-15T04:50:49.619Z,10.90
2023-04-15T04:55:47.975Z,11.10
2023-04-15T05:00:46.255Z,10.90
2023-04-15T05:05:44.467Z,11.00
2023-04-15T05:10:44.048Z,11.00
2023-04-15T05:15:43.471Z,11.00
2023-04-15T05:20:41.832Z,11.00
2023-04-15T05:25:40.301Z,11.00
2023-04-15T05:30:40.579Z,11.10
2023-04-15T05:35:38.797Z,11.10
2023-04-15T05:40:36.992Z,11.10
2023-04-15T05:45:35.231Z,11.20
2023-04-15T05:50:34.799Z,11.20
2023-04-15T05:55:33.015Z,11.40
2023-04-15T06:00:31.292Z,11.40
2023-04-15T06:05:29.552Z,11.50
2023-04-15T06:10:29.208Z,11.70
2023-04-15T06:15:27.558Z,11.80
2023-04-15T06:20:25.797Z,11.90
2023-04-15T06:25:24.151Z,11.90
2023-04-15T06:30:24.479Z,11.90
2023-04-15T06:35:23.156Z,11.80
2023-04-15T06:40:21.352Z,11.90
2023-04-15T06:45:19.503Z,12.00
2023-04-15T06:50:19.431Z,12.10
2023-04-15T06:55:17.663Z,12.30
2023-04-15T07:00:16.641Z,12.60
2023-04-15T07:05:14.815Z,12.80
2023-04-15T07:10:15.046Z,12.80
2023-04-15T07:15:13.415Z,12.70
2023-04-15T07:20:12.739Z,12.80
2023-04-15T07:25:11.452Z,12.70
2023-04-15T07:30:12.725Z,12.50
2023-04-15T07:35:11.880Z,12.40
2023-04-15T07:40:11.274Z,12.30
2023-04-15T07:45:12.969Z,12.20
2023-04-15T07:50:12.453Z,12.10
2023-04-15T07:55:11.555Z,12.10
2023-04-15T08:00:12.191Z,12.00
2023-04-15T08:05:13.159Z,12.00
2023-04-15T08:10:12.000Z,12.00
2023-04-15T08:15:13.223Z,11.90
2023-04-15T08:20:12.381Z,11.90
2023-04-15T08:25:11.453Z,11.80
2023-04-15T08:30:12.160Z,11.80
2023-04-15T08:35:10.748Z,12.00
2023-04-15T08:40:10.172Z,11.90
2023-04-15T08:45:12.312Z,11.90
2023-04-15T08:50:11.799Z,11.90
2023-04-15T08:55:12.247Z,11.90
2023-04-15T09:00:14.205Z,11.90
2023-04-15T09:05:12.380Z,11.90
2023-04-15T09:10:11.844Z,12.00
2023-04-15T09:15:13.939Z,12.10
2023-04-15T09:25:33.448Z,12.10
2023-04-15T09:30:34.840Z,12.20
2023-04-15T09:35:33.031Z,12.30
2023-04-15T09:40:36.124Z,12.30
2023-04-15T09:45:37.263Z,12.20
2023-04-15T09:50:42.844Z,12.20
2023-04-15T09:55:41.010Z,12.20
2023-04-15T10:00:40.783Z,12.20
2023-04-15T10:05:39.775Z,12.20
2023-04-15T10:10:39.088Z,12.20
2023-04-15T10:15:40.576Z,12.10
2023-04-15T10:20:39.992Z,12.10
2023-04-15T10:25:38.565Z,12.10
2023-04-15T10:30:38.140Z,12.10
2023-04-15T10:35:39.431Z,12.00
2023-04-15T10:40:39.997Z,12.00
2023-04-15T10:45:38.916Z,12.10
2023-04-15T10:50:39.495Z,12.20
2023-04-15T10:55:37.898Z,12.40
2023-04-15T11:00:39.962Z,12.60
2023-04-15T11:05:53.414Z,12.70
2023-04-15T11:10:53.841Z,12.70
2023-04-15T11:15:52.452Z,12.60
2023-04-15T11:20:54.626Z,12.60
2023-04-15T11:25:52.820Z,12.60
2023-04-15T11:30:51.148Z,12.50
2023-04-15T11:35:51.089Z,12.40
2023-04-15T11:40:49.768Z,12.40
2023-04-15T11:45:53.941Z,12.40
2023-04-15T11:50:57.898Z,12.50
2023-04-15T11:55:55.899Z,12.50
2023-04-15T12:00:55.481Z,12.50
2023-04-15T12:06:13.051Z,12.50
2023-04-15T12:11:11.245Z,12.60
2023-04-15T12:16:09.508Z,12.70
2023-04-15T12:21:13.047Z,12.70
2023-04-15T12:26:12.136Z,12.70
2023-04-15T12:31:11.176Z,12.90
2023-04-15T12:36:09.515Z,12.90
2023-04-15T12:41:09.118Z,13.10
2023-04-15T12:46:08.605Z,13.30
2023-04-15T12:51:06.883Z,13.30
2023-04-15T12:56:05.597Z,13.30
2023-04-15T13:01:05.222Z,13.30
2023-04-15T13:06:04.920Z,13.30
2023-04-15T13:11:03.141Z,13.40
2023-04-15T13:16:01.499Z,13.50
2023-04-15T13:21:01.833Z,13.60
2023-04-15T13:26:00.847Z,13.70
2023-04-15T13:31:00.445Z,13.60
2023-04-15T13:36:00.051Z,13.60
2023-04-15T13:40:58.160Z,13.50
2023-04-15T13:45:56.983Z,13.60
2023-04-15T13:50:55.236Z,13.60
2023-04-15T13:55:54.779Z,13.50
2023-04-15T14:00:53.212Z,13.40
2023-04-15T14:05:55.975Z,13.40
2023-04-15T14:10:55.536Z,13.40
2023-04-15T14:15:53.597Z,13.40
2023-04-15T14:20:52.015Z,13.30
2023-04-15T14:25:50.379Z,13.20
2023-04-15T14:30:50.034Z,13.20
2023-04-15T14:35:48.111Z,13.20
2023-04-15T14:40:46.456Z,13.00
2023-04-15T14:45:45.533Z,13.00
2023-04-15T14:50:45.213Z,12.90
2023-04-15T14:55:43.557Z,12.90
2023-04-15T15:00:44.530Z,12.90
2023-04-15T15:05:45.694Z,12.90
2023-04-15T15:10:48.399Z,12.90
2023-04-15T15:15:49.664Z,12.90
2023-04-15T15:20:49.619Z,12.90
2023-04-15T15:25:48.383Z,12.90
2023-04-15T15:30:46.616Z,12.90
2023-04-15T15:35:45.281Z,12.80
2023-04-15T15:40:45.020Z,12.80
2023-04-15T15:45:43.227Z,12.80
2023-04-15T15:50:41.437Z,12.80
2023-04-15T15:55:39.624Z,12.80
2023-04-15T16:00:39.027Z,12.80
2023-04-15T16:05:37.650Z,12.80
2023-04-15T16:10:35.963Z,12.70
2023-04-15T16:15:34.308Z,12.70
2023-04-15T16:20:33.967Z,12.80
2023-04-15T16:25:32.224Z,12.80
2023-04-15T16:30:30.501Z,12.70
2023-04-15T16:35:28.788Z,12.70
2023-04-15T16:40:28.175Z,12.70
2023-04-15T16:45:26.559Z,12.70
2023-04-15T16:50:25.171Z,12.60
2023-04-15T16:55:23.270Z,12.60
2023-04-15T17:00:23.035Z,12.60
2023-04-15T17:05:21.544Z,12.60
2023-04-15T17:10:19.848Z,12.60
2023-04-15T17:15:17.979Z,12.70
2023-04-15T17:20:18.507Z,12.70
2023-04-15T17:25:16.819Z,12.70
2023-04-15T17:30:14.845Z,12.70
2023-04-15T17:35:13.217Z,12.70
2023-04-15T17:40:14.933Z,12.70
2023-04-15T17:45:13.240Z,12.70
2023-04-15T17:50:11.736Z,12.70
2023-04-15T17:55:10.097Z,12.70
2023-04-15T18:00:11.477Z,12.70
2023-04-15T18:05:12.370Z,12.70
2023-04-15T18:10:11.050Z,12.60
2023-04-15T18:15:12.571Z,12.60
2023-04-15T18:20:11.306Z,12.50
2023-04-15T18:25:10.231Z,12.60
2023-04-15T18:30:11.667Z,12.50
2023-04-15T18:35:10.369Z,12.50
2023-04-15T18:40:09.867Z,12.60
2023-04-15T18:45:10.425Z,12.50
2023-04-15T18:50:09.470Z,12.50
2023-04-15T18:55:08.663Z,12.60
2023-04-15T19:00:08.079Z,12.60
2023-04-15T19:05:08.022Z,12.50
2023-04-15T19:10:07.421Z,12.50
2023-04-15T19:15:05.943Z,12.50
2023-04-15T19:20:04.413Z,12.50
2023-04-15T19:25:04.059Z,12.40
2023-04-15T19:30:03.498Z,12.40
2023-04-15T19:35:01.550Z,12.40
2023-04-15T19:39:59.834Z,12.40
2023-04-15T19:44:59.447Z,12.40
2023-04-15T19:49:57.510Z,12.40
2023-04-15T19:54:56.053Z,12.40
2023-04-15T19:59:54.061Z,12.50
2023-04-15T20:04:53.831Z,12.30
2023-04-15T20:09:52.430Z,12.30
2023-04-15T20:14:50.793Z,12.20
2023-04-15T20:19:48.829Z,12.30
2023-04-15T20:24:48.532Z,12.20
2023-04-15T20:29:46.596Z,12.20
2023-04-15T20:34:45.411Z,12.20
2023-04-15T20:39:43.452Z,12.20
2023-04-15T20:44:43.202Z,12.10
2023-04-15T20:49:41.378Z,12.10
2023-04-15T20:54:39.825Z,12.20
2023-04-15T20:59:37.871Z,12.20
2023-04-15T21:04:38.551Z,12.10
2023-04-15T21:09:38.565Z,12.20
2023-04-15T21:14:37.764Z,12.20
2023-04-15T21:19:37.768Z,12.10
2023-04-15T21:24:35.906Z,12.10
2023-04-15T21:29:34.493Z,12.00
2023-04-15T21:34:32.701Z,12.00
2023-04-15T21:39:32.478Z,12.00
2023-04-15T21:44:30.715Z,12.00
2023-04-15T21:49:28.842Z,12.00
2023-04-15T21:54:27.087Z,12.00
2023-04-15T21:59:27.242Z,12.00
2023-04-15T22:04:25.575Z,12.00
2023-04-15T22:09:24.065Z,12.00
2023-04-15T22:14:22.286Z,12.10
2023-04-15T22:19:21.898Z,12.10
2023-04-15T22:24:38.553Z,12.00
2023-04-15T22:29:38.497Z,12.00
2023-04-15T22:34:37.917Z,12.00
2023-04-15T22:39:36.475Z,12.00
2023-04-15T22:44:34.670Z,12.00
2023-04-15T22:49:35.110Z,12.00
2023-04-15T22:54:34.563Z,12.00
2023-04-15T22:59:32.940Z,12.20
2023-04-15T23:04:31.583Z,12.00
2023-04-15T23:09:30.054Z,12.00
2023-04-15T23:14:30.027Z,12.00
2023-04-15T23:19:28.392Z,12.00
2023-04-15T23:24:26.586Z,12.10
2023-04-15T23:29:24.828Z,12.10
2023-04-15T23:34:24.404Z,12.10
2023-04-15T23:39:22.819Z,12.10
2023-04-15T23:44:21.476Z,12.00
2023-04-15T23:49:20.458Z,12.00
2023-04-15T23:54:20.306Z,12.00
2023-04-15T23:59:18.320Z,12.00
